Ancramdale, NY

9:43 PM EDT on June 02, 2015 (GMT -0400)
Pine Plains | | Change Station
CLOSE
Current Station
Personal Weather Station
Location: Pine Plains, NY
Elevation: 640 ft
Nearby Weather Stations

Elev 640 ft 41.96 °N, 73.63 °W | Updated 6 seconds ago

Overcast
Overcast
49.5 °F
Feels Like 50 °F
N
0.0
Wind Variable Wind from ESE
Gusts 0.0 mph

Today
High -- | Low -- °F
--% Chance of Precip.
Yesterday
High -- | Low -- °F
Precip. -- in
5:21 AM 8:24 PM
Full, 100% visible
Pressure 30.14 in
Visibility 10.0 miles
Clouds Clear
Windchill 50 °F
Dew Point 48 °F
Humidity 96%
Rainfall 0.76 in
Snow Depth Not available.
UV 0 out of 12
Pollen .20 out of 12
Air Quality Not available.
Flu Activity Sporadic
METAR KPOU 030053Z AUTO 00000KT 10SM CLR 13/11 A3015 RMK AO2 SLP207 T01280106

More Conditions Fewer Conditions

Pressure 30.14 in
Visibility 10.0 miles
Clouds Clear
Windchill 50 °F
Dew Point 48 °F
Humidity 96%
Rainfall 0.76 in
Snow Depth Not available.
UV 0 out of 12
Pollen .20 out of 12
Air Quality Not available.
Flu Activity Sporadic
METAR KPOU 030053Z AUTO 00000KT 10SM CLR 13/11 A3015 RMK AO2 SLP207 T01280106

More Conditions Fewer Conditions

10-Day Weather Forecast

Almanac

Astronomy

Jun. 02, 2015 Rise Set
Actual Time
Civil Twilight
Nautical Twilight
Astronomical Twilight
Moon
Length of Visible Light
Length of Day
Tomorrow will be .
, % of the Moon is Illuminated

Today's Extremes

State Highs State Lows

Community

WunderPhotos

Upload Photos

1,826,097 photos uploaded!

WunderBlogs® & News

Nearby

Air Quality

  Air Quality AQ Index Pollutant
Not available.

Snow Depth

Station Depth Elevation

Earthquake Activity

City Distance Mag. Time & Date
Minimum magnitude displayed is 2.5.

Coastal Water Temperatures

Place Temperature

Stations

Nearby Weather Stations

Station Location Temp. Windchill Dew Point Humidity Wind Precip. Elev Updated Type